< Typhoon 198115 1981 Season Typhoon 198117 >
Typhoon 198116 (VANESSA)
General InformationDetailed Track InformationTrack Information on Google MapsList of All Images || Disaster Info.ResourceGoogle EarthGE AnimationAtom FeedGeoJSON
Detalied Best Track Wind (Time Zone = UTC)
Year Month Day Hour Lat. Long. Wind (kt) Gust (kt) Direc. of Major Storm Axis Radius of Major Storm Axis (nm) Radius of Minor Storm Axis (nm) Direc. of Major Gale Axis Radius of Major Gale Axis (nm) Radius of Minor Gale Axis (nm) Image
1981 8 16 00 23.8 153.7 0 0 - - - - - - Image
1981 8 16 06 24.0 154.5 0 0 - - - - - - Image
1981 8 16 12 25.0 155.9 0 0 - - - - - - Image
1981 8 16 18 26.1 157.2 0 0 - - - - - - Image
1981 8 17 00 27.2 158.3 0 0 - - - - - - Image
1981 8 17 06 28.5 159.4 40 0 - - - symmetric 100 100 Image
1981 8 17 12 29.6 160.6 50 0 - - - symmetric 150 150 Image
1981 8 17 18 30.4 161.4 50 0 - - - symmetric 200 200 Image
1981 8 18 00 31.2 162.2 50 0 - - - symmetric 200 200 Image
1981 8 18 06 32.0 163.2 45 0 - - - symmetric 200 200 Image
1981 8 18 12 32.8 164.2 45 0 - - - symmetric 200 200 Image
1981 8 18 18 33.6 165.1 40 0 - - - symmetric 200 200 Image
1981 8 19 00 34.5 166.0 40 0 - - - symmetric 200 200 Image
1981 8 19 06 36.0 166.5 40 0 - - - symmetric 200 200 Image
1981 8 19 12 37.5 166.5 40 0 - - - symmetric 200 200 Image
1981 8 19 18 39.0 166.5 40 0 - - - symmetric 200 200 Image
1981 8 20 00 40.0 166.0 0 0 - - - - - - Image
1981 8 20 06 41.5 166.0 0 0 - - - - - - Image
1981 8 20 12 43.0 166.0 0 0 - - - - - - Image
1981 8 20 18 45.0 166.0 0 0 - - - - - - Image
1981 8 21 00 47.0 165.0 0 0 - - - - - - Image
1981 8 21 06 49.0 164.0 0 0 - - - - - - Image
1981 8 21 12 51.5 165.0 0 0 - - - - - - Image
1981 8 21 18 54.0 167.0 0 0 - - - - - - Image
1981 8 22 00 56.0 169.0 0 0 - - - - - - Image
1981 8 22 06 57.0 170.0 0 0 - - - - - - Image
1981 8 22 12 58.0 171.0 0 0 - - - - - - Image
1981 8 22 18 58.0 172.0 0 0 - - - - - - Image
1981 8 23 00 58.0 174.0 0 0 - - - - - - Image
1981 8 23 06 58.0 177.0 0 0 - - - - - - Image
1981 8 23 12 58.0 180.0 0 0 - - - - - - Image
Japan Meteorological Agency Best Track Data | Correction Date : 1992-10-21
< Typhoon 198115 1981 Season Typhoon 198117 >

Help